sensor_id;sensor_type;location;lat;lon;timestamp;P1;durP1;ratioP1;P2;durP2;ratioP2
72639;SDS011;60683;51.730;8.762;2023-07-02T00:01:55;7.78;;;5.22;;
72639;SDS011;60683;51.730;8.762;2023-07-02T00:04:22;9.00;;;5.05;;
72639;SDS011;60683;51.730;8.762;2023-07-02T00:06:49;9.32;;;5.35;;
72639;SDS011;60683;51.730;8.762;2023-07-02T00:09:16;8.68;;;4.57;;
72639;SDS011;60683;51.730;8.762;2023-07-02T00:11:44;7.95;;;4.38;;
72639;SDS011;60683;51.730;8.762;2023-07-02T00:14:12;8.98;;;4.53;;
72639;SDS011;60683;51.730;8.762;2023-07-02T00:16:42;11.32;;;5.38;;
72639;SDS011;60683;51.730;8.762;2023-07-02T00:19:11;8.20;;;4.82;;
72639;SDS011;60683;51.730;8.762;2023-07-02T00:21:37;13.70;;;5.43;;
72639;SDS011;60683;51.730;8.762;2023-07-02T00:24:06;13.38;;;5.63;;
72639;SDS011;60683;51.730;8.762;2023-07-02T00:26:35;9.07;;;5.45;;
72639;SDS011;60683;51.730;8.762;2023-07-02T00:29:03;10.40;;;5.60;;
72639;SDS011;60683;51.730;8.762;2023-07-02T00:31:31;12.55;;;6.47;;
72639;SDS011;60683;51.730;8.762;2023-07-02T00:33:58;8.52;;;5.30;;
72639;SDS011;60683;51.730;8.762;2023-07-02T00:36:27;10.13;;;6.07;;
72639;SDS011;60683;51.730;8.762;2023-07-02T00:38:55;11.23;;;6.40;;
72639;SDS011;60683;51.730;8.762;2023-07-02T00:41:21;10.45;;;5.93;;
72639;SDS011;60683;51.730;8.762;2023-07-02T00:43:49;11.85;;;6.78;;
72639;SDS011;60683;51.730;8.762;2023-07-02T00:46:20;10.30;;;6.25;;
72639;SDS011;60683;51.730;8.762;2023-07-02T00:48:48;14.02;;;7.15;;
72639;SDS011;60683;51.730;8.762;2023-07-02T00:51:17;7.53;;;4.60;;
72639;SDS011;60683;51.730;8.762;2023-07-02T00:53:47;9.98;;;5.97;;
72639;SDS011;60683;51.730;8.762;2023-07-02T00:56:15;10.13;;;6.82;;
72639;SDS011;60683;51.730;8.762;2023-07-02T00:58:43;10.30;;;5.88;;
72639;SDS011;60683;51.730;8.762;2023-07-02T01:01:14;8.68;;;5.30;;
72639;SDS011;60683;51.730;8.762;2023-07-02T01:03:52;11.70;;;5.72;;
72639;SDS011;60683;51.730;8.762;2023-07-02T01:06:22;9.35;;;6.15;;
72639;SDS011;60683;51.730;8.762;2023-07-02T01:08:53;8.57;;;5.75;;
72639;SDS011;60683;51.730;8.762;2023-07-02T01:11:21;10.77;;;5.90;;
72639;SDS011;60683;51.730;8.762;2023-07-02T01:13:50;11.88;;;6.60;;
72639;SDS011;60683;51.730;8.762;2023-07-02T01:16:19;10.73;;;7.13;;
72639;SDS011;60683;51.730;8.762;2023-07-02T01:18:47;10.85;;;6.13;;
72639;SDS011;60683;51.730;8.762;2023-07-02T01:21:17;9.73;;;5.45;;
72639;SDS011;60683;51.730;8.762;2023-07-02T01:23:45;10.93;;;6.70;;
72639;SDS011;60683;51.730;8.762;2023-07-02T01:26:12;11.68;;;6.85;;
72639;SDS011;60683;51.730;8.762;2023-07-02T01:28:41;11.10;;;6.65;;
72639;SDS011;60683;51.730;8.762;2023-07-02T01:31:07;10.57;;;6.82;;
72639;SDS011;60683;51.730;8.762;2023-07-02T01:33:35;10.90;;;6.90;;
72639;SDS011;60683;51.730;8.762;2023-07-02T01:36:01;11.13;;;6.78;;
72639;SDS011;60683;51.730;8.762;2023-07-02T01:38:29;12.75;;;5.40;;
72639;SDS011;60683;51.730;8.762;2023-07-02T01:40:56;11.23;;;6.20;;
72639;SDS011;60683;51.730;8.762;2023-07-02T01:43:23;10.25;;;6.75;;
72639;SDS011;60683;51.730;8.762;2023-07-02T01:45:50;12.10;;;7.20;;
72639;SDS011;60683;51.730;8.762;2023-07-02T01:48:17;10.35;;;7.45;;
72639;SDS011;60683;51.730;8.762;2023-07-02T01:50:44;11.57;;;6.65;;
72639;SDS011;60683;51.730;8.762;2023-07-02T01:53:11;12.80;;;7.10;;
72639;SDS011;60683;51.730;8.762;2023-07-02T01:55:39;10.32;;;6.25;;
72639;SDS011;60683;51.730;8.762;2023-07-02T01:58:06;9.57;;;6.38;;
72639;SDS011;60683;51.730;8.762;2023-07-02T02:00:33;12.35;;;6.03;;
72639;SDS011;60683;51.730;8.762;2023-07-02T02:03:00;12.40;;;7.18;;
72639;SDS011;60683;51.730;8.762;2023-07-02T02:05:27;11.52;;;6.05;;
72639;SDS011;60683;51.730;8.762;2023-07-02T02:07:54;11.55;;;6.32;;
72639;SDS011;60683;51.730;8.762;2023-07-02T02:10:21;11.48;;;6.90;;
72639;SDS011;60683;51.730;8.762;2023-07-02T02:12:49;11.98;;;6.63;;
72639;SDS011;60683;51.730;8.762;2023-07-02T02:15:16;11.57;;;6.85;;
72639;SDS011;60683;51.730;8.762;2023-07-02T02:17:43;11.77;;;6.40;;
72639;SDS011;60683;51.730;8.762;2023-07-02T02:20:11;11.35;;;6.40;;
72639;SDS011;60683;51.730;8.762;2023-07-02T02:22:38;14.25;;;7.35;;
72639;SDS011;60683;51.730;8.762;2023-07-02T02:25:05;13.15;;;7.32;;
72639;SDS011;60683;51.730;8.762;2023-07-02T02:27:32;12.88;;;7.18;;
72639;SDS011;60683;51.730;8.762;2023-07-02T02:30:00;12.68;;;7.25;;
72639;SDS011;60683;51.730;8.762;2023-07-02T02:32:27;12.55;;;6.93;;
72639;SDS011;60683;51.730;8.762;2023-07-02T02:34:53;11.13;;;7.05;;
72639;SDS011;60683;51.730;8.762;2023-07-02T02:37:20;11.70;;;7.00;;
72639;SDS011;60683;51.730;8.762;2023-07-02T02:39:48;12.85;;;7.50;;
72639;SDS011;60683;51.730;8.762;2023-07-02T02:42:16;10.45;;;6.35;;
72639;SDS011;60683;51.730;8.762;2023-07-02T02:44:42;10.52;;;6.43;;
72639;SDS011;60683;51.730;8.762;2023-07-02T02:47:11;12.55;;;7.00;;
72639;SDS011;60683;51.730;8.762;2023-07-02T02:49:38;9.32;;;5.40;;
72639;SDS011;60683;51.730;8.762;2023-07-02T02:52:05;11.15;;;6.72;;
72639;SDS011;60683;51.730;8.762;2023-07-02T02:54:32;10.45;;;6.78;;
72639;SDS011;60683;51.730;8.762;2023-07-02T02:56:59;11.15;;;7.28;;
72639;SDS011;60683;51.730;8.762;2023-07-02T02:59:26;10.57;;;6.38;;
72639;SDS011;60683;51.730;8.762;2023-07-02T03:01:53;11.48;;;6.65;;
72639;SDS011;60683;51.730;8.762;2023-07-02T03:04:21;11.25;;;6.93;;
72639;SDS011;60683;51.730;8.762;2023-07-02T03:06:49;12.07;;;6.45;;
72639;SDS011;60683;51.730;8.762;2023-07-02T03:09:16;11.05;;;7.07;;
72639;SDS011;60683;51.730;8.762;2023-07-02T03:11:43;12.57;;;6.50;;
72639;SDS011;60683;51.730;8.762;2023-07-02T03:14:10;13.27;;;7.25;;
72639;SDS011;60683;51.730;8.762;2023-07-02T03:16:37;12.73;;;7.40;;
72639;SDS011;60683;51.730;8.762;2023-07-02T03:19:04;10.82;;;6.35;;
72639;SDS011;60683;51.730;8.762;2023-07-02T03:21:32;12.48;;;6.15;;
72639;SDS011;60683;51.730;8.762;2023-07-02T03:23:59;11.27;;;6.90;;
72639;SDS011;60683;51.730;8.762;2023-07-02T03:26:26;10.98;;;6.35;;
72639;SDS011;60683;51.730;8.762;2023-07-02T03:28:52;11.60;;;6.35;;
72639;SDS011;60683;51.730;8.762;2023-07-02T03:31:19;11.10;;;6.65;;
72639;SDS011;60683;51.730;8.762;2023-07-02T03:33:46;7.60;;;4.63;;
72639;SDS011;60683;51.730;8.762;2023-07-02T03:36:13;8.77;;;6.13;;
72639;SDS011;60683;51.730;8.762;2023-07-02T03:38:41;12.50;;;6.93;;
72639;SDS011;60683;51.730;8.762;2023-07-02T03:41:09;14.32;;;7.20;;
72639;SDS011;60683;51.730;8.762;2023-07-02T03:43:36;10.75;;;5.88;;
72639;SDS011;60683;51.730;8.762;2023-07-02T03:46:03;12.73;;;7.40;;
72639;SDS011;60683;51.730;8.762;2023-07-02T03:48:30;8.55;;;5.25;;
72639;SDS011;60683;51.730;8.762;2023-07-02T03:50:56;12.57;;;7.95;;
72639;SDS011;60683;51.730;8.762;2023-07-02T03:53:23;12.50;;;7.10;;
72639;SDS011;60683;51.730;8.762;2023-07-02T03:55:52;9.50;;;6.65;;
72639;SDS011;60683;51.730;8.762;2023-07-02T03:58:19;11.82;;;7.10;;
72639;SDS011;60683;51.730;8.762;2023-07-02T04:00:47;11.00;;;7.55;;
72639;SDS011;60683;51.730;8.762;2023-07-02T04:03:14;14.80;;;7.85;;
72639;SDS011;60683;51.730;8.762;2023-07-02T04:05:42;10.50;;;6.70;;
72639;SDS011;60683;51.730;8.762;2023-07-02T04:08:08;11.93;;;8.35;;
72639;SDS011;60683;51.730;8.762;2023-07-02T04:10:35;12.20;;;7.38;;
72639;SDS011;60683;51.730;8.762;2023-07-02T04:13:04;10.10;;;5.55;;
72639;SDS011;60683;51.730;8.762;2023-07-02T04:15:31;10.63;;;6.85;;
72639;SDS011;60683;51.730;8.762;2023-07-02T04:17:58;7.65;;;5.07;;
72639;SDS011;60683;51.730;8.762;2023-07-02T04:20:24;8.75;;;5.85;;
72639;SDS011;60683;51.730;8.762;2023-07-02T04:22:53;12.80;;;6.05;;
72639;SDS011;60683;51.730;8.762;2023-07-02T04:25:20;10.52;;;6.32;;
72639;SDS011;60683;51.730;8.762;2023-07-02T04:27:47;10.38;;;6.15;;
72639;SDS011;60683;51.730;8.762;2023-07-02T04:30:16;11.05;;;6.05;;
72639;SDS011;60683;51.730;8.762;2023-07-02T04:32:42;11.07;;;6.55;;
72639;SDS011;60683;51.730;8.762;2023-07-02T04:35:10;11.65;;;5.70;;
72639;SDS011;60683;51.730;8.762;2023-07-02T04:37:37;11.20;;;5.20;;
72639;SDS011;60683;51.730;8.762;2023-07-02T04:40:04;9.90;;;4.75;;
72639;SDS011;60683;51.730;8.762;2023-07-02T04:42:34;9.80;;;4.80;;
72639;SDS011;60683;51.730;8.762;2023-07-02T04:45:03;9.45;;;4.97;;
72639;SDS011;60683;51.730;8.762;2023-07-02T04:47:32;8.45;;;5.85;;
72639;SDS011;60683;51.730;8.762;2023-07-02T04:50:00;13.95;;;7.65;;
72639;SDS011;60683;51.730;8.762;2023-07-02T04:52:26;8.38;;;4.75;;
72639;SDS011;60683;51.730;8.762;2023-07-02T04:54:54;9.68;;;5.50;;
72639;SDS011;60683;51.730;8.762;2023-07-02T04:57:21;13.50;;;6.05;;
72639;SDS011;60683;51.730;8.762;2023-07-02T04:59:48;9.77;;;5.00;;
72639;SDS011;60683;51.730;8.762;2023-07-02T05:02:15;15.65;;;6.95;;
72639;SDS011;60683;51.730;8.762;2023-07-02T05:04:44;14.90;;;6.85;;
72639;SDS011;60683;51.730;8.762;2023-07-02T05:07:10;14.65;;;6.43;;
72639;SDS011;60683;51.730;8.762;2023-07-02T05:09:37;14.38;;;6.97;;
72639;SDS011;60683;51.730;8.762;2023-07-02T05:12:04;11.93;;;6.72;;
72639;SDS011;60683;51.730;8.762;2023-07-02T05:14:32;13.65;;;6.57;;
72639;SDS011;60683;51.730;8.762;2023-07-02T05:16:59;16.30;;;7.53;;
72639;SDS011;60683;51.730;8.762;2023-07-02T05:19:26;16.63;;;6.70;;
72639;SDS011;60683;51.730;8.762;2023-07-02T05:21:54;13.10;;;6.20;;
72639;SDS011;60683;51.730;8.762;2023-07-02T05:24:21;18.45;;;7.07;;
72639;SDS011;60683;51.730;8.762;2023-07-02T05:26:48;11.65;;;6.00;;
72639;SDS011;60683;51.730;8.762;2023-07-02T05:29:16;11.50;;;5.47;;
72639;SDS011;60683;51.730;8.762;2023-07-02T05:31:43;16.65;;;6.85;;
72639;SDS011;60683;51.730;8.762;2023-07-02T05:34:10;12.90;;;6.47;;
72639;SDS011;60683;51.730;8.762;2023-07-02T05:36:37;9.25;;;4.35;;
72639;SDS011;60683;51.730;8.762;2023-07-02T05:39:06;13.73;;;7.63;;
72639;SDS011;60683;51.730;8.762;2023-07-02T05:41:33;12.18;;;5.90;;
72639;SDS011;60683;51.730;8.762;2023-07-02T05:44:00;16.70;;;7.68;;
72639;SDS011;60683;51.730;8.762;2023-07-02T05:46:27;13.57;;;6.60;;
72639;SDS011;60683;51.730;8.762;2023-07-02T05:48:53;17.15;;;6.38;;
72639;SDS011;60683;51.730;8.762;2023-07-02T05:51:22;11.23;;;5.85;;
72639;SDS011;60683;51.730;8.762;2023-07-02T05:53:49;15.90;;;7.65;;
72639;SDS011;60683;51.730;8.762;2023-07-02T05:56:17;13.13;;;7.15;;
72639;SDS011;60683;51.730;8.762;2023-07-02T05:58:45;16.52;;;5.97;;
72639;SDS011;60683;51.730;8.762;2023-07-02T06:01:12;16.13;;;7.32;;
72639;SDS011;60683;51.730;8.762;2023-07-02T06:03:39;14.82;;;5.50;;
72639;SDS011;60683;51.730;8.762;2023-07-02T06:06:07;14.48;;;6.95;;
72639;SDS011;60683;51.730;8.762;2023-07-02T06:08:34;12.65;;;5.68;;
72639;SDS011;60683;51.730;8.762;2023-07-02T06:11:01;13.80;;;6.63;;
72639;SDS011;60683;51.730;8.762;2023-07-02T06:13:29;14.32;;;5.63;;
72639;SDS011;60683;51.730;8.762;2023-07-02T06:15:56;10.50;;;5.70;;
72639;SDS011;60683;51.730;8.762;2023-07-02T06:18:23;16.92;;;6.75;;
72639;SDS011;60683;51.730;8.762;2023-07-02T06:20:50;9.57;;;5.32;;
72639;SDS011;60683;51.730;8.762;2023-07-02T06:23:17;16.38;;;7.07;;
72639;SDS011;60683;51.730;8.762;2023-07-02T06:25:44;15.30;;;5.88;;
72639;SDS011;60683;51.730;8.762;2023-07-02T06:28:11;18.38;;;6.75;;
72639;SDS011;60683;51.730;8.762;2023-07-02T06:30:39;17.95;;;6.40;;
72639;SDS011;60683;51.730;8.762;2023-07-02T06:33:06;8.82;;;5.10;;
72639;SDS011;60683;51.730;8.762;2023-07-02T06:35:33;11.02;;;5.43;;
72639;SDS011;60683;51.730;8.762;2023-07-02T06:37:59;15.00;;;6.07;;
72639;SDS011;60683;51.730;8.762;2023-07-02T06:40:26;12.15;;;6.13;;
72639;SDS011;60683;51.730;8.762;2023-07-02T06:42:53;12.32;;;5.20;;
72639;SDS011;60683;51.730;8.762;2023-07-02T06:45:20;10.82;;;5.63;;
72639;SDS011;60683;51.730;8.762;2023-07-02T06:47:49;13.45;;;5.82;;
72639;SDS011;60683;51.730;8.762;2023-07-02T06:50:16;12.40;;;5.82;;
72639;SDS011;60683;51.730;8.762;2023-07-02T06:52:42;13.52;;;5.70;;
72639;SDS011;60683;51.730;8.762;2023-07-02T06:55:09;13.13;;;5.40;;
72639;SDS011;60683;51.730;8.762;2023-07-02T06:57:41;9.82;;;4.45;;
72639;SDS011;60683;51.730;8.762;2023-07-02T07:00:08;11.30;;;4.80;;
72639;SDS011;60683;51.730;8.762;2023-07-02T07:02:36;15.23;;;5.75;;
72639;SDS011;60683;51.730;8.762;2023-07-02T07:05:04;10.27;;;4.78;;
72639;SDS011;60683;51.730;8.762;2023-07-02T07:07:32;13.30;;;5.00;;
72639;SDS011;60683;51.730;8.762;2023-07-02T07:09:58;15.48;;;5.65;;
72639;SDS011;60683;51.730;8.762;2023-07-02T07:12:25;10.90;;;5.38;;
72639;SDS011;60683;51.730;8.762;2023-07-02T07:14:52;11.85;;;5.30;;
72639;SDS011;60683;51.730;8.762;2023-07-02T07:17:19;14.45;;;5.78;;
72639;SDS011;60683;51.730;8.762;2023-07-02T07:19:46;10.65;;;4.35;;
72639;SDS011;60683;51.730;8.762;2023-07-02T07:22:14;11.80;;;5.47;;
72639;SDS011;60683;51.730;8.762;2023-07-02T07:24:41;15.48;;;6.05;;
72639;SDS011;60683;51.730;8.762;2023-07-02T07:27:08;15.43;;;5.90;;
72639;SDS011;60683;51.730;8.762;2023-07-02T07:29:34;11.23;;;5.18;;
72639;SDS011;60683;51.730;8.762;2023-07-02T07:32:01;12.30;;;6.05;;
72639;SDS011;60683;51.730;8.762;2023-07-02T07:34:28;12.52;;;6.88;;
72639;SDS011;60683;51.730;8.762;2023-07-02T07:36:55;9.85;;;4.20;;
72639;SDS011;60683;51.730;8.762;2023-07-02T07:39:23;12.10;;;4.68;;
72639;SDS011;60683;51.730;8.762;2023-07-02T07:41:50;13.23;;;6.50;;
72639;SDS011;60683;51.730;8.762;2023-07-02T07:44:17;10.73;;;4.30;;
72639;SDS011;60683;51.730;8.762;2023-07-02T07:46:44;11.18;;;4.45;;
72639;SDS011;60683;51.730;8.762;2023-07-02T07:49:11;12.57;;;4.93;;
72639;SDS011;60683;51.730;8.762;2023-07-02T07:51:39;12.25;;;5.13;;
72639;SDS011;60683;51.730;8.762;2023-07-02T07:54:05;15.07;;;6.43;;
72639;SDS011;60683;51.730;8.762;2023-07-02T07:56:34;15.18;;;5.75;;
72639;SDS011;60683;51.730;8.762;2023-07-02T07:59:01;16.35;;;5.53;;
72639;SDS011;60683;51.730;8.762;2023-07-02T08:01:28;10.68;;;4.85;;
72639;SDS011;60683;51.730;8.762;2023-07-02T08:03:54;11.75;;;5.45;;
72639;SDS011;60683;51.730;8.762;2023-07-02T08:06:22;12.15;;;6.30;;
72639;SDS011;60683;51.730;8.762;2023-07-02T08:08:48;13.50;;;6.25;;
72639;SDS011;60683;51.730;8.762;2023-07-02T08:11:15;13.60;;;6.68;;
72639;SDS011;60683;51.730;8.762;2023-07-02T08:13:44;14.40;;;7.38;;
72639;SDS011;60683;51.730;8.762;2023-07-02T08:16:10;22.45;;;8.38;;
72639;SDS011;60683;51.730;8.762;2023-07-02T08:18:38;18.55;;;9.07;;
72639;SDS011;60683;51.730;8.762;2023-07-02T08:21:05;18.67;;;8.05;;
72639;SDS011;60683;51.730;8.762;2023-07-02T08:23:32;19.92;;;7.78;;
72639;SDS011;60683;51.730;8.762;2023-07-02T08:25:59;14.93;;;8.10;;
72639;SDS011;60683;51.730;8.762;2023-07-02T08:28:26;17.65;;;8.25;;
72639;SDS011;60683;51.730;8.762;2023-07-02T08:30:55;18.27;;;7.68;;
72639;SDS011;60683;51.730;8.762;2023-07-02T08:33:22;13.30;;;7.03;;
72639;SDS011;60683;51.730;8.762;2023-07-02T08:35:48;18.77;;;8.52;;
72639;SDS011;60683;51.730;8.762;2023-07-02T08:38:15;20.98;;;9.40;;
72639;SDS011;60683;51.730;8.762;2023-07-02T08:40:42;13.90;;;7.45;;
72639;SDS011;60683;51.730;8.762;2023-07-02T08:43:09;14.43;;;7.05;;
72639;SDS011;60683;51.730;8.762;2023-07-02T08:45:36;14.57;;;8.73;;
72639;SDS011;60683;51.730;8.762;2023-07-02T08:48:04;15.55;;;7.93;;
72639;SDS011;60683;51.730;8.762;2023-07-02T08:50:32;14.15;;;7.03;;
72639;SDS011;60683;51.730;8.762;2023-07-02T08:52:59;14.27;;;6.53;;
72639;SDS011;60683;51.730;8.762;2023-07-02T08:55:26;15.60;;;7.10;;
72639;SDS011;60683;51.730;8.762;2023-07-02T08:57:55;15.80;;;7.38;;
72639;SDS011;60683;51.730;8.762;2023-07-02T09:00:25;22.63;;;8.40;;
72639;SDS011;60683;51.730;8.762;2023-07-02T09:02:51;17.00;;;6.07;;
72639;SDS011;60683;51.730;8.762;2023-07-02T09:05:20;15.15;;;6.80;;
72639;SDS011;60683;51.730;8.762;2023-07-02T09:07:48;17.08;;;6.60;;
72639;SDS011;60683;51.730;8.762;2023-07-02T09:10:25;10.75;;;4.85;;
72639;SDS011;60683;51.730;8.762;2023-07-02T09:13:04;11.45;;;5.40;;
72639;SDS011;60683;51.730;8.762;2023-07-02T09:15:35;8.57;;;4.03;;
72639;SDS011;60683;51.730;8.762;2023-07-02T09:18:13;9.52;;;4.20;;
72639;SDS011;60683;51.730;8.762;2023-07-02T09:20:42;14.20;;;4.45;;
72639;SDS011;60683;51.730;8.762;2023-07-02T09:23:09;12.43;;;4.80;;
72639;SDS011;60683;51.730;8.762;2023-07-02T09:25:36;9.68;;;5.00;;
72639;SDS011;60683;51.730;8.762;2023-07-02T09:28:13;10.23;;;4.65;;
72639;SDS011;60683;51.730;8.762;2023-07-02T09:30:48;10.40;;;4.78;;
72639;SDS011;60683;51.730;8.762;2023-07-02T09:33:15;10.68;;;5.03;;
72639;SDS011;60683;51.730;8.762;2023-07-02T09:35:44;11.15;;;5.32;;
72639;SDS011;60683;51.730;8.762;2023-07-02T09:38:11;12.05;;;4.70;;
72639;SDS011;60683;51.730;8.762;2023-07-02T09:40:45;13.07;;;5.43;;
72639;SDS011;60683;51.730;8.762;2023-07-02T09:43:13;15.13;;;5.10;;
72639;SDS011;60683;51.730;8.762;2023-07-02T09:45:41;13.02;;;4.55;;
72639;SDS011;60683;51.730;8.762;2023-07-02T09:48:10;12.50;;;4.72;;
72639;SDS011;60683;51.730;8.762;2023-07-02T09:50:38;15.40;;;4.90;;
72639;SDS011;60683;51.730;8.762;2023-07-02T09:53:07;10.40;;;4.25;;
72639;SDS011;60683;51.730;8.762;2023-07-02T09:55:34;12.57;;;4.72;;
72639;SDS011;60683;51.730;8.762;2023-07-02T09:58:01;11.65;;;5.57;;
72639;SDS011;60683;51.730;8.762;2023-07-02T10:00:28;12.77;;;5.07;;
72639;SDS011;60683;51.730;8.762;2023-07-02T10:02:55;9.80;;;3.83;;
72639;SDS011;60683;51.730;8.762;2023-07-02T10:05:25;10.43;;;4.75;;
72639;SDS011;60683;51.730;8.762;2023-07-02T10:07:52;9.32;;;4.22;;
72639;SDS011;60683;51.730;8.762;2023-07-02T10:10:26;13.43;;;4.85;;
72639;SDS011;60683;51.730;8.762;2023-07-02T10:12:54;12.23;;;4.05;;
72639;SDS011;60683;51.730;8.762;2023-07-02T10:15:24;11.15;;;5.10;;
72639;SDS011;60683;51.730;8.762;2023-07-02T10:17:54;13.45;;;4.28;;
72639;SDS011;60683;51.730;8.762;2023-07-02T10:20:30;10.77;;;4.32;;
72639;SDS011;60683;51.730;8.762;2023-07-02T10:22:58;10.15;;;5.18;;
72639;SDS011;60683;51.730;8.762;2023-07-02T10:25:29;14.07;;;5.55;;
72639;SDS011;60683;51.730;8.762;2023-07-02T10:27:58;12.50;;;5.00;;
72639;SDS011;60683;51.730;8.762;2023-07-02T10:30:32;10.88;;;4.68;;
72639;SDS011;60683;51.730;8.762;2023-07-02T10:33:09;11.68;;;4.65;;
72639;SDS011;60683;51.730;8.762;2023-07-02T10:35:37;9.50;;;4.07;;
72639;SDS011;60683;51.730;8.762;2023-07-02T10:38:04;14.52;;;5.57;;
72639;SDS011;60683;51.730;8.762;2023-07-02T10:40:33;9.38;;;3.85;;
72639;SDS011;60683;51.730;8.762;2023-07-02T10:43:00;12.25;;;4.22;;
72639;SDS011;60683;51.730;8.762;2023-07-02T10:45:33;10.73;;;4.75;;
72639;SDS011;60683;51.730;8.762;2023-07-02T10:48:01;12.45;;;5.07;;
72639;SDS011;60683;51.730;8.762;2023-07-02T10:50:30;10.55;;;4.10;;
72639;SDS011;60683;51.730;8.762;2023-07-02T10:52:57;12.27;;;4.93;;
72639;SDS011;60683;51.730;8.762;2023-07-02T10:55:25;12.70;;;4.90;;
72639;SDS011;60683;51.730;8.762;2023-07-02T10:58:03;8.35;;;4.68;;
72639;SDS011;60683;51.730;8.762;2023-07-02T11:00:30;9.60;;;4.20;;
72639;SDS011;60683;51.730;8.762;2023-07-02T11:02:57;9.30;;;4.25;;
72639;SDS011;60683;51.730;8.762;2023-07-02T11:05:27;14.20;;;5.15;;
72639;SDS011;60683;51.730;8.762;2023-07-02T11:07:53;12.48;;;4.93;;
72639;SDS011;60683;51.730;8.762;2023-07-02T11:10:23;12.95;;;5.03;;
72639;SDS011;60683;51.730;8.762;2023-07-02T11:12:50;10.98;;;4.03;;
72639;SDS011;60683;51.730;8.762;2023-07-02T11:15:19;11.43;;;4.97;;
72639;SDS011;60683;51.730;8.762;2023-07-02T11:17:46;12.38;;;4.18;;
72639;SDS011;60683;51.730;8.762;2023-07-02T11:20:13;10.60;;;4.45;;
72639;SDS011;60683;51.730;8.762;2023-07-02T11:22:40;12.98;;;4.85;;
72639;SDS011;60683;51.730;8.762;2023-07-02T11:25:08;11.20;;;4.97;;
72639;SDS011;60683;51.730;8.762;2023-07-02T11:27:36;11.68;;;4.70;;
72639;SDS011;60683;51.730;8.762;2023-07-02T11:30:03;11.90;;;4.85;;
72639;SDS011;60683;51.730;8.762;2023-07-02T11:32:34;12.00;;;4.57;;
72639;SDS011;60683;51.730;8.762;2023-07-02T11:35:02;10.75;;;4.10;;
72639;SDS011;60683;51.730;8.762;2023-07-02T11:37:29;11.15;;;3.97;;
72639;SDS011;60683;51.730;8.762;2023-07-02T11:39:56;11.95;;;4.30;;
72639;SDS011;60683;51.730;8.762;2023-07-02T11:42:22;11.40;;;3.85;;
72639;SDS011;60683;51.730;8.762;2023-07-02T11:44:50;8.90;;;3.90;;
72639;SDS011;60683;51.730;8.762;2023-07-02T11:47:17;8.85;;;3.70;;
72639;SDS011;60683;51.730;8.762;2023-07-02T11:49:45;10.23;;;4.03;;
72639;SDS011;60683;51.730;8.762;2023-07-02T11:52:11;10.93;;;4.68;;
72639;SDS011;60683;51.730;8.762;2023-07-02T11:54:40;9.40;;;4.20;;
72639;SDS011;60683;51.730;8.762;2023-07-02T11:57:07;10.45;;;4.03;;
72639;SDS011;60683;51.730;8.762;2023-07-02T11:59:34;10.52;;;4.32;;
72639;SDS011;60683;51.730;8.762;2023-07-02T12:02:01;12.43;;;4.32;;
72639;SDS011;60683;51.730;8.762;2023-07-02T12:04:29;12.75;;;4.78;;
72639;SDS011;60683;51.730;8.762;2023-07-02T12:06:57;10.98;;;4.20;;
72639;SDS011;60683;51.730;8.762;2023-07-02T12:09:26;8.98;;;4.40;;
72639;SDS011;60683;51.730;8.762;2023-07-02T12:11:53;11.07;;;4.40;;
72639;SDS011;60683;51.730;8.762;2023-07-02T12:14:21;12.88;;;3.95;;
72639;SDS011;60683;51.730;8.762;2023-07-02T12:16:48;8.82;;;3.88;;
72639;SDS011;60683;51.730;8.762;2023-07-02T12:19:14;11.13;;;4.43;;
72639;SDS011;60683;51.730;8.762;2023-07-02T12:21:41;12.27;;;4.45;;
72639;SDS011;60683;51.730;8.762;2023-07-02T12:24:10;11.00;;;5.00;;
72639;SDS011;60683;51.730;8.762;2023-07-02T12:26:37;9.82;;;4.30;;
72639;SDS011;60683;51.730;8.762;2023-07-02T12:29:04;11.32;;;3.80;;
72639;SDS011;60683;51.730;8.762;2023-07-02T12:31:31;9.77;;;3.70;;
72639;SDS011;60683;51.730;8.762;2023-07-02T12:33:58;9.40;;;3.97;;
72639;SDS011;60683;51.730;8.762;2023-07-02T12:36:25;10.13;;;3.72;;
72639;SDS011;60683;51.730;8.762;2023-07-02T12:38:52;9.50;;;4.05;;
72639;SDS011;60683;51.730;8.762;2023-07-02T12:41:20;11.85;;;4.65;;
72639;SDS011;60683;51.730;8.762;2023-07-02T12:43:47;8.23;;;4.07;;
72639;SDS011;60683;51.730;8.762;2023-07-02T12:46:14;11.52;;;4.13;;
72639;SDS011;60683;51.730;8.762;2023-07-02T12:48:41;7.07;;;3.88;;
72639;SDS011;60683;51.730;8.762;2023-07-02T12:51:07;9.02;;;3.78;;
72639;SDS011;60683;51.730;8.762;2023-07-02T12:53:34;9.63;;;4.10;;
72639;SDS011;60683;51.730;8.762;2023-07-02T12:56:01;10.30;;;4.32;;
72639;SDS011;60683;51.730;8.762;2023-07-02T12:58:30;12.23;;;4.90;;
72639;SDS011;60683;51.730;8.762;2023-07-02T13:00:56;10.10;;;4.97;;
72639;SDS011;60683;51.730;8.762;2023-07-02T13:03:23;14.00;;;4.65;;
72639;SDS011;60683;51.730;8.762;2023-07-02T13:05:50;10.05;;;4.38;;
72639;SDS011;60683;51.730;8.762;2023-07-02T13:08:17;8.25;;;4.10;;
72639;SDS011;60683;51.730;8.762;2023-07-02T13:10:44;12.63;;;4.80;;
72639;SDS011;60683;51.730;8.762;2023-07-02T13:13:11;9.20;;;4.72;;
72639;SDS011;60683;51.730;8.762;2023-07-02T13:15:39;9.18;;;4.00;;
72639;SDS011;60683;51.730;8.762;2023-07-02T13:18:06;8.80;;;4.68;;
72639;SDS011;60683;51.730;8.762;2023-07-02T13:20:33;12.90;;;6.25;;
72639;SDS011;60683;51.730;8.762;2023-07-02T13:23:00;9.30;;;4.00;;
72639;SDS011;60683;51.730;8.762;2023-07-02T13:25:27;8.90;;;4.63;;
72639;SDS011;60683;51.730;8.762;2023-07-02T13:27:54;9.27;;;4.10;;
72639;SDS011;60683;51.730;8.762;2023-07-02T13:30:21;9.50;;;4.32;;
72639;SDS011;60683;51.730;8.762;2023-07-02T13:32:50;8.68;;;2.97;;
72639;SDS011;60683;51.730;8.762;2023-07-02T13:35:17;11.38;;;4.40;;
72639;SDS011;60683;51.730;8.762;2023-07-02T13:37:45;12.85;;;4.47;;
72639;SDS011;60683;51.730;8.762;2023-07-02T13:40:12;9.57;;;4.10;;
72639;SDS011;60683;51.730;8.762;2023-07-02T13:42:41;7.75;;;3.35;;
72639;SDS011;60683;51.730;8.762;2023-07-02T13:45:08;9.90;;;4.68;;
72639;SDS011;60683;51.730;8.762;2023-07-02T13:47:36;10.38;;;4.00;;
72639;SDS011;60683;51.730;8.762;2023-07-02T13:50:05;10.25;;;4.07;;
72639;SDS011;60683;51.730;8.762;2023-07-02T13:52:32;10.18;;;4.60;;
72639;SDS011;60683;51.730;8.762;2023-07-02T13:54:59;10.20;;;4.38;;
72639;SDS011;60683;51.730;8.762;2023-07-02T13:57:26;9.38;;;4.25;;
72639;SDS011;60683;51.730;8.762;2023-07-02T13:59:55;13.35;;;5.05;;
72639;SDS011;60683;51.730;8.762;2023-07-02T14:02:22;9.35;;;3.72;;
72639;SDS011;60683;51.730;8.762;2023-07-02T14:04:50;9.52;;;4.45;;
72639;SDS011;60683;51.730;8.762;2023-07-02T14:07:17;10.68;;;4.15;;
72639;SDS011;60683;51.730;8.762;2023-07-02T14:09:45;7.72;;;3.65;;
72639;SDS011;60683;51.730;8.762;2023-07-02T14:12:12;9.57;;;4.00;;
72639;SDS011;60683;51.730;8.762;2023-07-02T14:14:39;9.07;;;3.65;;
72639;SDS011;60683;51.730;8.762;2023-07-02T14:17:07;10.65;;;4.32;;
72639;SDS011;60683;51.730;8.762;2023-07-02T14:19:34;8.27;;;3.90;;
72639;SDS011;60683;51.730;8.762;2023-07-02T14:22:01;9.98;;;3.83;;
72639;SDS011;60683;51.730;8.762;2023-07-02T14:24:28;7.75;;;3.70;;
72639;SDS011;60683;51.730;8.762;2023-07-02T14:26:55;9.38;;;3.78;;
72639;SDS011;60683;51.730;8.762;2023-07-02T14:29:23;7.07;;;3.35;;
72639;SDS011;60683;51.730;8.762;2023-07-02T14:31:49;6.50;;;3.00;;
72639;SDS011;60683;51.730;8.762;2023-07-02T14:34:18;8.82;;;3.45;;
72639;SDS011;60683;51.730;8.762;2023-07-02T14:36:45;9.15;;;3.78;;
72639;SDS011;60683;51.730;8.762;2023-07-02T14:39:12;8.88;;;3.63;;
72639;SDS011;60683;51.730;8.762;2023-07-02T14:41:39;7.40;;;2.92;;